Terminal Aerodrome Forecast
Issued by NWS

Home | Current Version | Previous Version | Text Only | Print | Product List | Glossary On
Versions: 1 2 3 4 5 6 7 8 9 10 11 12 13 14 15 16 17 18 19 20 21
012
FTUS44 KSJT 272330
TAFSOA
TAF
KSOA 272330Z 2800/2824 18006KT P6SM SCT250
     FM280700 18006KT P6SM OVC015
     FM280900 18006KT 2SM BR OVC003
     FM281700 22010KT P6SM BKN250=

USA.gov is the U.S. government's official web portal to all federal, state and local government web resources and services.